sensor_id;sensor_type;location;lat;lon;timestamp;pressure;altitude;pressure_sealevel;temperature;humidity
15678;BME280;7939;50.814;6.368;2022-12-04T00:01:07;99902.63;;;7.35;59.00
15678;BME280;7939;50.814;6.368;2022-12-04T00:03:35;99904.31;;;7.35;58.36
15678;BME280;7939;50.814;6.368;2022-12-04T00:06:03;99901.78;;;7.35;58.78
15678;BME280;7939;50.814;6.368;2022-12-04T00:08:30;99900.88;;;7.29;58.41
15678;BME280;7939;50.814;6.368;2022-12-04T00:10:57;99896.66;;;7.33;59.26
15678;BME280;7939;50.814;6.368;2022-12-04T00:13:24;99884.72;;;7.27;58.63
15678;BME280;7939;50.814;6.368;2022-12-04T00:15:50;99880.50;;;7.28;57.97
15678;BME280;7939;50.814;6.368;2022-12-04T00:18:19;99882.94;;;7.20;58.84
15678;BME280;7939;50.814;6.368;2022-12-04T00:20:47;99881.16;;;7.16;59.21
15678;BME280;7939;50.814;6.368;2022-12-04T00:23:13;99880.38;;;7.19;59.01
15678;BME280;7939;50.814;6.368;2022-12-04T00:25:40;99887.97;;;7.17;58.22
15678;BME280;7939;50.814;6.368;2022-12-04T00:28:07;99878.63;;;7.16;59.24
15678;BME280;7939;50.814;6.368;2022-12-04T00:30:33;99884.72;;;7.27;59.11
15678;BME280;7939;50.814;6.368;2022-12-04T00:33:00;99888.09;;;7.25;59.07
15678;BME280;7939;50.814;6.368;2022-12-04T00:35:28;99881.31;;;7.27;59.37
15678;BME280;7939;50.814;6.368;2022-12-04T00:37:54;99883.16;;;7.36;59.35
15678;BME280;7939;50.814;6.368;2022-12-04T00:40:21;99881.44;;;7.35;58.78
15678;BME280;7939;50.814;6.368;2022-12-04T00:42:47;99873.81;;;7.35;59.38
15678;BME280;7939;50.814;6.368;2022-12-04T00:45:14;99876.06;;;7.15;58.43
15678;BME280;7939;50.814;6.368;2022-12-04T00:47:40;99870.09;;;7.13;59.23
15678;BME280;7939;50.814;6.368;2022-12-04T00:50:08;99867.75;;;7.25;58.68
15678;BME280;7939;50.814;6.368;2022-12-04T00:52:36;99865.13;;;7.19;59.15
15678;BME280;7939;50.814;6.368;2022-12-04T00:55:03;99868.59;;;7.24;58.95
15678;BME280;7939;50.814;6.368;2022-12-04T00:57:30;99874.41;;;7.17;59.07
15678;BME280;7939;50.814;6.368;2022-12-04T00:59:56;99871.03;;;7.18;59.12
15678;BME280;7939;50.814;6.368;2022-12-04T01:02:23;99867.69;;;7.22;58.48
15678;BME280;7939;50.814;6.368;2022-12-04T01:04:49;99871.06;;;7.21;58.60
15678;BME280;7939;50.814;6.368;2022-12-04T01:07:16;99873.59;;;7.18;59.25
15678;BME280;7939;50.814;6.368;2022-12-04T01:09:44;99870.22;;;7.22;59.29
15678;BME280;7939;50.814;6.368;2022-12-04T01:12:11;99872.84;;;7.25;59.14
15678;BME280;7939;50.814;6.368;2022-12-04T01:14:37;99874.63;;;7.32;59.11
15678;BME280;7939;50.814;6.368;2022-12-04T01:17:04;99867.66;;;7.17;59.39
15678;BME280;7939;50.814;6.368;2022-12-04T01:19:30;99872.75;;;7.19;58.48
15678;BME280;7939;50.814;6.368;2022-12-04T01:21:57;99875.28;;;7.19;59.07
15678;BME280;7939;50.814;6.368;2022-12-04T01:24:23;99873.63;;;7.22;58.37
15678;BME280;7939;50.814;6.368;2022-12-04T01:26:51;99871.81;;;7.15;58.32
15678;BME280;7939;50.814;6.368;2022-12-04T01:29:18;99879.44;;;7.14;59.32
15678;BME280;7939;50.814;6.368;2022-12-04T01:31:44;99872.53;;;7.05;58.04
15678;BME280;7939;50.814;6.368;2022-12-04T01:34:11;99862.56;;;7.17;58.74
15678;BME280;7939;50.814;6.368;2022-12-04T01:36:37;99869.25;;;7.12;59.27
15678;BME280;7939;50.814;6.368;2022-12-04T01:39:04;99861.72;;;7.17;58.32
15678;BME280;7939;50.814;6.368;2022-12-04T01:41:31;99870.59;;;6.90;58.64
15678;BME280;7939;50.814;6.368;2022-12-04T01:44:14;99869.75;;;6.90;58.46
15678;BME280;7939;50.814;6.368;2022-12-04T01:46:42;99864.78;;;6.97;58.88
15678;BME280;7939;50.814;6.368;2022-12-04T01:49:12;99864.00;;;7.03;58.77
15678;BME280;7939;50.814;6.368;2022-12-04T01:51:41;99864.19;;;7.15;59.38
15678;BME280;7939;50.814;6.368;2022-12-04T01:54:13;99854.22;;;7.26;59.21
15678;BME280;7939;50.814;6.368;2022-12-04T01:56:45;99848.25;;;7.24;58.52
15678;BME280;7939;50.814;6.368;2022-12-04T01:59:16;99845.81;;;7.30;59.17
15678;BME280;7939;50.814;6.368;2022-12-04T02:01:56;99847.53;;;7.33;58.34
15678;BME280;7939;50.814;6.368;2022-12-04T02:04:25;99846.66;;;7.30;58.61
15678;BME280;7939;50.814;6.368;2022-12-04T02:06:51;99843.28;;;7.32;58.19
15678;BME280;7939;50.814;6.368;2022-12-04T02:09:18;99844.06;;;7.29;58.45
15678;BME280;7939;50.814;6.368;2022-12-04T02:11:51;99842.44;;;7.33;58.46
15678;BME280;7939;50.814;6.368;2022-12-04T02:14:31;99840.75;;;7.35;58.07
15678;BME280;7939;50.814;6.368;2022-12-04T02:17:04;99850.66;;;7.15;58.28
15678;BME280;7939;50.814;6.368;2022-12-04T02:19:50;99847.44;;;7.28;58.28
15678;BME280;7939;50.814;6.368;2022-12-04T02:22:29;99850.06;;;7.33;58.71
15678;BME280;7939;50.814;6.368;2022-12-04T02:25:07;99857.75;;;7.36;57.70
15678;BME280;7939;50.814;6.368;2022-12-04T02:27:51;99861.06;;;7.32;57.70
15678;BME280;7939;50.814;6.368;2022-12-04T02:30:21;99864.63;;;7.44;58.76
15678;BME280;7939;50.814;6.368;2022-12-04T02:32:56;99859.47;;;7.40;58.94
15678;BME280;7939;50.814;6.368;2022-12-04T02:35:27;99862.78;;;7.34;57.58
15678;BME280;7939;50.814;6.368;2022-12-04T02:38:00;99859.28;;;7.24;58.10
15678;BME280;7939;50.814;6.368;2022-12-04T02:40:32;99861.91;;;7.30;57.53
15678;BME280;7939;50.814;6.368;2022-12-04T02:43:07;99862.00;;;7.37;58.08
15678;BME280;7939;50.814;6.368;2022-12-04T02:45:38;99867.84;;;7.33;57.58
15678;BME280;7939;50.814;6.368;2022-12-04T02:48:07;99861.00;;;7.28;58.50
15678;BME280;7939;50.814;6.368;2022-12-04T02:50:36;99866.00;;;7.22;57.48
15678;BME280;7939;50.814;6.368;2022-12-04T02:53:08;99867.78;;;7.28;57.40
15678;BME280;7939;50.814;6.368;2022-12-04T02:55:37;99863.53;;;7.25;57.72
15678;BME280;7939;50.814;6.368;2022-12-04T02:58:10;99863.59;;;7.30;57.78
15678;BME280;7939;50.814;6.368;2022-12-04T03:00:40;99854.88;;;7.16;57.84
15678;BME280;7939;50.814;6.368;2022-12-04T03:03:14;99858.28;;;7.16;57.65
15678;BME280;7939;50.814;6.368;2022-12-04T03:05:47;99860.91;;;7.21;57.60
15678;BME280;7939;50.814;6.368;2022-12-04T03:08:20;99858.44;;;7.25;58.29
15678;BME280;7939;50.814;6.368;2022-12-04T03:10:51;99860.06;;;7.20;58.30
15678;BME280;7939;50.814;6.368;2022-12-04T03:13:25;99862.75;;;7.29;57.97
15678;BME280;7939;50.814;6.368;2022-12-04T03:15:59;99861.00;;;7.28;57.73
15678;BME280;7939;50.814;6.368;2022-12-04T03:18:28;99862.84;;;7.37;58.28
15678;BME280;7939;50.814;6.368;2022-12-04T03:21:00;99863.72;;;7.41;58.68
15678;BME280;7939;50.814;6.368;2022-12-04T03:23:31;99871.50;;;7.48;58.62
15678;BME280;7939;50.814;6.368;2022-12-04T03:26:06;99874.13;;;7.54;59.15
15678;BME280;7939;50.814;6.368;2022-12-04T03:28:45;99868.78;;;7.38;57.33
15678;BME280;7939;50.814;6.368;2022-12-04T03:31:22;99870.41;;;7.34;58.29
15678;BME280;7939;50.814;6.368;2022-12-04T03:33:53;99861.94;;;7.34;57.05
15678;BME280;7939;50.814;6.368;2022-12-04T03:36:24;99866.22;;;7.36;57.78
15678;BME280;7939;50.814;6.368;2022-12-04T03:38:56;99864.56;;;7.41;58.73
15678;BME280;7939;50.814;6.368;2022-12-04T03:41:28;99856.16;;;7.42;58.64
15678;BME280;7939;50.814;6.368;2022-12-04T03:44:00;99857.84;;;7.42;58.05
15678;BME280;7939;50.814;6.368;2022-12-04T03:46:34;99856.25;;;7.50;57.99
15678;BME280;7939;50.814;6.368;2022-12-04T03:49:11;99862.88;;;7.39;57.39
15678;BME280;7939;50.814;6.368;2022-12-04T03:51:44;99864.38;;;7.27;57.83
15678;BME280;7939;50.814;6.368;2022-12-04T03:54:16;99863.53;;;7.27;57.89
15678;BME280;7939;50.814;6.368;2022-12-04T03:56:48;99862.84;;;7.36;57.54
15678;BME280;7939;50.814;6.368;2022-12-04T03:59:21;99855.25;;;7.40;57.36
15678;BME280;7939;50.814;6.368;2022-12-04T04:01:49;99865.41;;;7.39;57.57
15678;BME280;7939;50.814;6.368;2022-12-04T04:04:22;99867.19;;;7.46;58.38
15678;BME280;7939;50.814;6.368;2022-12-04T04:06:53;99864.75;;;7.52;58.31
15678;BME280;7939;50.814;6.368;2022-12-04T04:09:24;99871.41;;;7.42;57.53
15678;BME280;7939;50.814;6.368;2022-12-04T04:11:56;99869.84;;;7.53;57.80
15678;BME280;7939;50.814;6.368;2022-12-04T04:14:28;99865.47;;;7.42;57.93
15678;BME280;7939;50.814;6.368;2022-12-04T04:17:17;99866.34;;;7.47;57.81
15678;BME280;7939;50.814;6.368;2022-12-04T04:20:05;99870.69;;;7.54;58.83
15678;BME280;7939;50.814;6.368;2022-12-04T04:22:51;99861.22;;;7.42;57.25
15678;BME280;7939;50.814;6.368;2022-12-04T04:25:40;99863.03;;;7.49;58.24
15678;BME280;7939;50.814;6.368;2022-12-04T04:28:26;99864.78;;;7.55;58.82
15678;BME280;7939;50.814;6.368;2022-12-04T04:31:01;99876.66;;;7.56;57.98
15678;BME280;7939;50.814;6.368;2022-12-04T04:33:31;99870.72;;;7.55;58.04
15678;BME280;7939;50.814;6.368;2022-12-04T04:36:06;99854.59;;;7.53;58.45
15678;BME280;7939;50.814;6.368;2022-12-04T04:38:38;99853.78;;;7.56;58.76
15678;BME280;7939;50.814;6.368;2022-12-04T04:41:10;99864.06;;;7.64;58.43
15678;BME280;7939;50.814;6.368;2022-12-04T04:43:47;99866.50;;;7.56;58.17
15678;BME280;7939;50.814;6.368;2022-12-04T04:46:22;99861.44;;;7.59;58.67
15678;BME280;7939;50.814;6.368;2022-12-04T04:48:52;99862.97;;;7.48;57.73
15678;BME280;7939;50.814;6.368;2022-12-04T04:51:19;99853.78;;;7.54;57.96
15678;BME280;7939;50.814;6.368;2022-12-04T04:53:49;99852.88;;;7.54;57.45
15678;BME280;7939;50.814;6.368;2022-12-04T04:56:17;99845.22;;;7.51;58.21
15678;BME280;7939;50.814;6.368;2022-12-04T04:58:44;99836.84;;;7.58;57.81
15678;BME280;7939;50.814;6.368;2022-12-04T05:01:13;99847.03;;;7.58;59.05
15678;BME280;7939;50.814;6.368;2022-12-04T05:03:41;99846.09;;;7.51;58.09
15678;BME280;7939;50.814;6.368;2022-12-04T05:06:08;99852.94;;;7.55;58.35
15678;BME280;7939;50.814;6.368;2022-12-04T05:08:35;99839.41;;;7.60;58.28
15678;BME280;7939;50.814;6.368;2022-12-04T05:11:02;99842.78;;;7.60;58.66
15678;BME280;7939;50.814;6.368;2022-12-04T05:13:29;99848.69;;;7.56;58.09
15678;BME280;7939;50.814;6.368;2022-12-04T05:15:56;99832.75;;;7.68;59.09
15678;BME280;7939;50.814;6.368;2022-12-04T05:18:24;99835.16;;;7.58;57.13
15678;BME280;7939;50.814;6.368;2022-12-04T05:20:52;99833.50;;;7.61;58.19
15678;BME280;7939;50.814;6.368;2022-12-04T05:23:18;99836.09;;;7.67;58.51
15678;BME280;7939;50.814;6.368;2022-12-04T05:25:45;99833.56;;;7.67;58.09
15678;BME280;7939;50.814;6.368;2022-12-04T05:28:11;99832.78;;;7.71;58.99
15678;BME280;7939;50.814;6.368;2022-12-04T05:30:38;99843.78;;;7.71;58.58
15678;BME280;7939;50.814;6.368;2022-12-04T05:33:05;99836.09;;;7.65;58.07
15678;BME280;7939;50.814;6.368;2022-12-04T05:35:31;99839.47;;;7.63;58.47
15678;BME280;7939;50.814;6.368;2022-12-04T05:37:59;99845.31;;;7.57;57.52
15678;BME280;7939;50.814;6.368;2022-12-04T05:40:26;99839.47;;;7.64;57.99
15678;BME280;7939;50.814;6.368;2022-12-04T05:42:52;99841.13;;;7.61;58.13
15678;BME280;7939;50.814;6.368;2022-12-04T05:45:19;99829.94;;;7.48;57.40
15678;BME280;7939;50.814;6.368;2022-12-04T05:47:45;99835.84;;;7.47;57.16
15678;BME280;7939;50.814;6.368;2022-12-04T05:50:12;99841.78;;;7.46;57.00
15678;BME280;7939;50.814;6.368;2022-12-04T05:52:39;99842.69;;;7.51;57.15
15678;BME280;7939;50.814;6.368;2022-12-04T05:55:07;99838.09;;;7.24;56.66
15678;BME280;7939;50.814;6.368;2022-12-04T05:57:34;99834.16;;;7.46;58.30
15678;BME280;7939;50.814;6.368;2022-12-04T06:00:00;99845.00;;;7.34;56.22
15678;BME280;7939;50.814;6.368;2022-12-04T06:02:27;99841.50;;;7.27;56.84
15678;BME280;7939;50.814;6.368;2022-12-04T06:04:53;99841.59;;;7.34;57.36
15678;BME280;7939;50.814;6.368;2022-12-04T06:07:20;99851.75;;;7.30;56.80
15678;BME280;7939;50.814;6.368;2022-12-04T06:09:46;99842.31;;;7.23;56.82
15678;BME280;7939;50.814;6.368;2022-12-04T06:12:14;99836.16;;;7.08;55.81
15678;BME280;7939;50.814;6.368;2022-12-04T06:14:41;99848.22;;;7.22;57.76
15678;BME280;7939;50.814;6.368;2022-12-04T06:17:07;99850.84;;;7.28;57.46
15678;BME280;7939;50.814;6.368;2022-12-04T06:19:34;99849.16;;;7.29;58.42
15678;BME280;7939;50.814;6.368;2022-12-04T06:22:00;99856.06;;;7.36;57.62
15678;BME280;7939;50.814;6.368;2022-12-04T06:24:27;99850.06;;;7.34;58.03
15678;BME280;7939;50.814;6.368;2022-12-04T06:26:54;99853.59;;;7.42;58.02
15678;BME280;7939;50.814;6.368;2022-12-04T06:29:23;99856.22;;;7.48;57.77
15678;BME280;7939;50.814;6.368;2022-12-04T06:31:49;99855.13;;;7.31;57.73
15678;BME280;7939;50.814;6.368;2022-12-04T06:34:16;99858.63;;;7.39;58.49
15678;BME280;7939;50.814;6.368;2022-12-04T06:36:43;99852.69;;;7.37;57.23
15678;BME280;7939;50.814;6.368;2022-12-04T06:39:09;99853.63;;;7.44;57.45
15678;BME280;7939;50.814;6.368;2022-12-04T06:41:36;99864.63;;;7.43;57.74
15678;BME280;7939;50.814;6.368;2022-12-04T06:44:03;99865.41;;;7.39;57.91
15678;BME280;7939;50.814;6.368;2022-12-04T06:46:32;99869.75;;;7.46;58.48
15678;BME280;7939;50.814;6.368;2022-12-04T06:49:00;99867.28;;;7.52;58.76
15678;BME280;7939;50.814;6.368;2022-12-04T06:51:29;99868.13;;;7.51;58.23
15678;BME280;7939;50.814;6.368;2022-12-04T06:53:57;99865.56;;;7.51;57.63
15678;BME280;7939;50.814;6.368;2022-12-04T06:56:26;99870.69;;;7.52;58.40
15678;BME280;7939;50.814;6.368;2022-12-04T06:58:54;99873.22;;;7.54;57.76
15678;BME280;7939;50.814;6.368;2022-12-04T07:01:23;99869.03;;;7.54;57.95
15678;BME280;7939;50.814;6.368;2022-12-04T07:03:51;99868.69;;;7.32;58.32
15678;BME280;7939;50.814;6.368;2022-12-04T07:06:20;99872.22;;;7.41;56.85
15678;BME280;7939;50.814;6.368;2022-12-04T07:08:50;99875.66;;;7.45;57.44
15678;BME280;7939;50.814;6.368;2022-12-04T07:11:18;99876.59;;;7.51;58.57
15678;BME280;7939;50.814;6.368;2022-12-04T07:13:44;99871.41;;;7.44;58.70
15678;BME280;7939;50.814;6.368;2022-12-04T07:16:13;99877.13;;;7.29;57.10
15678;BME280;7939;50.814;6.368;2022-12-04T07:18:41;99880.38;;;7.20;56.16
15678;BME280;7939;50.814;6.368;2022-12-04T07:21:11;99894.94;;;7.30;57.96
15678;BME280;7939;50.814;6.368;2022-12-04T07:23:39;99893.91;;;7.18;57.01
15678;BME280;7939;50.814;6.368;2022-12-04T07:26:06;99891.06;;;6.98;56.63
15678;BME280;7939;50.814;6.368;2022-12-04T07:28:33;99891.22;;;7.09;57.30
15678;BME280;7939;50.814;6.368;2022-12-04T07:31:03;99882.34;;;6.84;55.88
15678;BME280;7939;50.814;6.368;2022-12-04T07:33:30;99884.97;;;6.88;57.27
15678;BME280;7939;50.814;6.368;2022-12-04T07:35:58;99877.13;;;6.76;56.10
15678;BME280;7939;50.814;6.368;2022-12-04T07:38:27;99888.16;;;6.78;56.42
15678;BME280;7939;50.814;6.368;2022-12-04T07:40:55;99880.66;;;6.84;57.19
15678;BME280;7939;50.814;6.368;2022-12-04T07:43:22;99889.13;;;6.85;56.22
15678;BME280;7939;50.814;6.368;2022-12-04T07:45:48;99895.03;;;6.82;56.14
15678;BME280;7939;50.814;6.368;2022-12-04T07:48:15;99884.13;;;6.89;57.31
15678;BME280;7939;50.814;6.368;2022-12-04T07:50:41;99893.34;;;6.83;56.80
15678;BME280;7939;50.814;6.368;2022-12-04T07:53:08;99896.72;;;6.82;56.09
15678;BME280;7939;50.814;6.368;2022-12-04T07:55:36;99883.72;;;6.65;56.29
15678;BME280;7939;50.814;6.368;2022-12-04T07:58:03;99882.97;;;6.70;57.04
15678;BME280;7939;50.814;6.368;2022-12-04T08:00:29;99879.91;;;6.90;57.48
15678;BME280;7939;50.814;6.368;2022-12-04T08:02:56;99888.31;;;6.86;56.78
15678;BME280;7939;50.814;6.368;2022-12-04T08:05:23;99888.47;;;6.96;57.36
15678;BME280;7939;50.814;6.368;2022-12-04T08:07:49;99887.63;;;6.96;57.61
15678;BME280;7939;50.814;6.368;2022-12-04T08:10:16;99896.19;;;7.02;56.65
15678;BME280;7939;50.814;6.368;2022-12-04T08:12:44;99888.66;;;7.09;57.75
15678;BME280;7939;50.814;6.368;2022-12-04T08:15:11;99887.69;;;7.00;56.57
15678;BME280;7939;50.814;6.368;2022-12-04T08:17:37;99897.97;;;7.08;57.30
15678;BME280;7939;50.814;6.368;2022-12-04T08:20:05;99902.31;;;7.15;57.16
15678;BME280;7939;50.814;6.368;2022-12-04T08:22:32;99898.78;;;7.04;56.94
15678;BME280;7939;50.814;6.368;2022-12-04T08:24:58;99892.16;;;7.15;58.34
15678;BME280;7939;50.814;6.368;2022-12-04T08:27:25;99889.59;;;7.14;57.33
15678;BME280;7939;50.814;6.368;2022-12-04T08:29:53;99891.31;;;7.16;58.04
15678;BME280;7939;50.814;6.368;2022-12-04T08:32:19;99895.53;;;7.13;57.14
15678;BME280;7939;50.814;6.368;2022-12-04T08:34:48;99897.44;;;7.27;57.24
15678;BME280;7939;50.814;6.368;2022-12-04T08:37:15;99886.31;;;7.21;56.60
15678;BME280;7939;50.814;6.368;2022-12-04T08:39:41;99902.47;;;7.23;57.00
15678;BME280;7939;50.814;6.368;2022-12-04T08:42:08;99904.88;;;7.15;57.19
15678;BME280;7939;50.814;6.368;2022-12-04T08:44:34;99901.59;;;7.22;57.65
15678;BME280;7939;50.814;6.368;2022-12-04T08:47:02;99908.41;;;7.23;58.45
15678;BME280;7939;50.814;6.368;2022-12-04T08:49:29;99908.22;;;7.13;57.37
15678;BME280;7939;50.814;6.368;2022-12-04T08:51:55;99906.41;;;7.04;56.48
15678;BME280;7939;50.814;6.368;2022-12-04T08:54:22;99902.97;;;7.02;56.05
15678;BME280;7939;50.814;6.368;2022-12-04T08:56:48;99894.19;;;6.83;56.02
15678;BME280;7939;50.814;6.368;2022-12-04T08:59:15;99895.09;;;6.85;56.13
15678;BME280;7939;50.814;6.368;2022-12-04T09:01:41;99898.63;;;6.96;57.20
15678;BME280;7939;50.814;6.368;2022-12-04T09:04:09;99894.66;;;7.11;58.08
15678;BME280;7939;50.814;6.368;2022-12-04T09:06:36;99888.00;;;7.20;57.77
15678;BME280;7939;50.814;6.368;2022-12-04T09:09:02;99886.97;;;7.09;57.15
15678;BME280;7939;50.814;6.368;2022-12-04T09:11:29;99890.44;;;7.14;57.05
15678;BME280;7939;50.814;6.368;2022-12-04T09:13:57;99879.44;;;7.15;57.63
15678;BME280;7939;50.814;6.368;2022-12-04T09:16:24;99890.44;;;7.14;57.72
15678;BME280;7939;50.814;6.368;2022-12-04T09:18:51;99886.13;;;7.07;57.18
15678;BME280;7939;50.814;6.368;2022-12-04T09:21:20;99889.66;;;7.17;57.83
15678;BME280;7939;50.814;6.368;2022-12-04T09:23:47;99894.66;;;7.11;57.83
15678;BME280;7939;50.814;6.368;2022-12-04T09:26:17;99898.00;;;7.10;56.79
15678;BME280;7939;50.814;6.368;2022-12-04T09:28:46;99901.56;;;7.19;58.01
15678;BME280;7939;50.814;6.368;2022-12-04T09:31:13;99901.44;;;7.12;57.60
15678;BME280;7939;50.814;6.368;2022-12-04T09:33:39;99901.53;;;7.18;57.75
15678;BME280;7939;50.814;6.368;2022-12-04T09:36:06;99909.19;;;7.19;58.00
15678;BME280;7939;50.814;6.368;2022-12-04T09:38:34;99909.13;;;7.16;57.56
15678;BME280;7939;50.814;6.368;2022-12-04T09:41:04;99909.28;;;7.27;57.83
15678;BME280;7939;50.814;6.368;2022-12-04T09:43:40;99915.13;;;7.21;58.77
15678;BME280;7939;50.814;6.368;2022-12-04T09:46:11;99907.59;;;7.26;58.54
15678;BME280;7939;50.814;6.368;2022-12-04T09:48:41;99905.91;;;7.28;57.66
15678;BME280;7939;50.814;6.368;2022-12-04T09:51:10;99905.88;;;7.23;57.20
15678;BME280;7939;50.814;6.368;2022-12-04T09:53:45;99911.94;;;7.35;57.40
15678;BME280;7939;50.814;6.368;2022-12-04T09:56:14;99910.13;;;7.26;57.37
15678;BME280;7939;50.814;6.368;2022-12-04T09:58:46;99905.97;;;7.31;57.44
15678;BME280;7939;50.814;6.368;2022-12-04T10:01:20;99917.81;;;7.30;57.36
15678;BME280;7939;50.814;6.368;2022-12-04T10:03:47;99910.75;;;7.11;57.12
15678;BME280;7939;50.814;6.368;2022-12-04T10:06:17;99914.88;;;7.05;56.14
15678;BME280;7939;50.814;6.368;2022-12-04T10:08:50;99909.84;;;7.09;57.02
15678;BME280;7939;50.814;6.368;2022-12-04T10:11:24;99913.09;;;7.00;57.53
15678;BME280;7939;50.814;6.368;2022-12-04T10:14:08;99906.69;;;6.72;56.00
15678;BME280;7939;50.814;6.368;2022-12-04T10:16:45;99901.38;;;6.59;56.94
15678;BME280;7939;50.814;6.368;2022-12-04T10:19:22;99892.38;;;6.76;56.99
15678;BME280;7939;50.814;6.368;2022-12-04T10:22:02;99896.00;;;6.90;57.00
15678;BME280;7939;50.814;6.368;2022-12-04T10:24:40;99905.56;;;7.05;57.49
15678;BME280;7939;50.814;6.368;2022-12-04T10:27:10;99904.81;;;7.11;57.42
15678;BME280;7939;50.814;6.368;2022-12-04T10:29:38;99897.75;;;6.94;56.78
15678;BME280;7939;50.814;6.368;2022-12-04T10:32:16;99891.19;;;7.06;57.23
15678;BME280;7939;50.814;6.368;2022-12-04T10:34:45;99894.59;;;7.09;57.95
15678;BME280;7939;50.814;6.368;2022-12-04T10:37:14;99892.09;;;7.11;57.95
15678;BME280;7939;50.814;6.368;2022-12-04T10:39:47;99885.34;;;7.13;58.28
15678;BME280;7939;50.814;6.368;2022-12-04T10:42:23;99887.06;;;7.15;57.14
15678;BME280;7939;50.814;6.368;2022-12-04T10:44:51;99889.22;;;6.91;55.97
15678;BME280;7939;50.814;6.368;2022-12-04T10:47:18;99880.13;;;7.03;56.94
15678;BME280;7939;50.814;6.368;2022-12-04T10:49:48;99873.50;;;6.60;56.63
15678;BME280;7939;50.814;6.368;2022-12-04T10:52:15;99870.44;;;6.80;56.33
15678;BME280;7939;50.814;6.368;2022-12-04T10:54:45;99872.91;;;6.76;56.66
15678;BME280;7939;50.814;6.368;2022-12-04T10:57:14;99873.63;;;6.69;56.70
15678;BME280;7939;50.814;6.368;2022-12-04T10:59:48;99868.53;;;6.68;56.18
15678;BME280;7939;50.814;6.368;2022-12-04T11:02:19;99872.81;;;6.70;56.31
15678;BME280;7939;50.814;6.368;2022-12-04T11:04:51;99869.50;;;6.74;57.20
15678;BME280;7939;50.814;6.368;2022-12-04T11:07:21;99866.06;;;6.72;56.55
15678;BME280;7939;50.814;6.368;2022-12-04T11:09:55;99863.06;;;6.95;57.08
15678;BME280;7939;50.814;6.368;2022-12-04T11:12:23;99858.78;;;6.92;56.56
15678;BME280;7939;50.814;6.368;2022-12-04T11:14:59;99866.44;;;6.94;56.86
15678;BME280;7939;50.814;6.368;2022-12-04T11:17:26;99864.00;;;7.00;56.22
15678;BME280;7939;50.814;6.368;2022-12-04T11:19:58;99858.69;;;6.86;56.73
15678;BME280;7939;50.814;6.368;2022-12-04T11:22:25;99858.91;;;7.00;56.54
15678;BME280;7939;50.814;6.368;2022-12-04T11:24:57;99847.00;;;6.97;56.15
15678;BME280;7939;50.814;6.368;2022-12-04T11:27:28;99861.19;;;6.85;56.74
15678;BME280;7939;50.814;6.368;2022-12-04T11:29:57;99864.50;;;6.79;55.99
15678;BME280;7939;50.814;6.368;2022-12-04T11:32:28;99869.81;;;6.93;57.18
15678;BME280;7939;50.814;6.368;2022-12-04T11:34:59;99862.28;;;7.00;57.69
15678;BME280;7939;50.814;6.368;2022-12-04T11:37:30;99858.91;;;7.01;56.92
15678;BME280;7939;50.814;6.368;2022-12-04T11:39:59;99856.91;;;6.82;56.74
15678;BME280;7939;50.814;6.368;2022-12-04T11:42:30;99855.94;;;6.74;55.85
15678;BME280;7939;50.814;6.368;2022-12-04T11:44:59;99854.34;;;6.79;56.49
15678;BME280;7939;50.814;6.368;2022-12-04T11:47:27;99849.31;;;6.84;56.81
15678;BME280;7939;50.814;6.368;2022-12-04T11:50:02;99845.03;;;6.80;56.94
15678;BME280;7939;50.814;6.368;2022-12-04T11:52:44;99847.41;;;6.70;56.52
15678;BME280;7939;50.814;6.368;2022-12-04T11:55:20;99849.84;;;6.64;56.40
15678;BME280;7939;50.814;6.368;2022-12-04T11:58:13;99849.06;;;6.67;57.17
15678;BME280;7939;50.814;6.368;2022-12-04T12:00:51;99845.72;;;6.69;56.92
15678;BME280;7939;50.814;6.368;2022-12-04T12:03:25;99853.25;;;6.65;56.25
15678;BME280;7939;50.814;6.368;2022-12-04T12:06:06;99851.97;;;6.90;57.40
15678;BME280;7939;50.814;6.368;2022-12-04T12:08:49;99854.59;;;6.96;58.16
15678;BME280;7939;50.814;6.368;2022-12-04T12:11:25;99849.72;;;7.10;57.76
15678;BME280;7939;50.814;6.368;2022-12-04T12:13:59;99857.19;;;6.99;56.90
15678;BME280;7939;50.814;6.368;2022-12-04T12:16:40;99845.28;;;6.96;56.69
15678;BME280;7939;50.814;6.368;2022-12-04T12:19:31;99858.16;;;7.06;57.66
15678;BME280;7939;50.814;6.368;2022-12-04T12:22:07;99850.44;;;6.99;56.53
15678;BME280;7939;50.814;6.368;2022-12-04T12:24:46;99847.00;;;6.97;56.90
15678;BME280;7939;50.814;6.368;2022-12-04T12:27:30;99844.34;;;6.90;56.68
15678;BME280;7939;50.814;6.368;2022-12-04T12:30:03;99838.28;;;6.82;56.83
15678;BME280;7939;50.814;6.368;2022-12-04T12:35:26;99829.81;;;6.81;57.18
15678;BME280;7939;50.814;6.368;2022-12-04T12:37:58;99831.34;;;6.71;56.43
15678;BME280;7939;50.814;6.368;2022-12-04T12:40:31;99833.00;;;6.69;56.44
15678;BME280;7939;50.814;6.368;2022-12-04T12:43:05;99838.19;;;6.75;57.08
15678;BME280;7939;50.814;6.368;2022-12-04T12:45:39;99829.34;;;6.54;56.43
15678;BME280;7939;50.814;6.368;2022-12-04T12:48:19;99826.13;;;6.62;57.31
15678;BME280;7939;50.814;6.368;2022-12-04T12:50:52;99829.53;;;6.64;57.37
15678;BME280;7939;50.814;6.368;2022-12-04T12:53:22;99820.75;;;6.44;56.76
15678;BME280;7939;50.814;6.368;2022-12-04T12:55:52;99820.19;;;6.60;56.89
15678;BME280;7939;50.814;6.368;2022-12-04T12:58:26;99824.44;;;6.63;57.36
15678;BME280;7939;50.814;6.368;2022-12-04T13:01:01;99818.44;;;6.58;56.85
15678;BME280;7939;50.814;6.368;2022-12-04T13:03:43;99820.94;;;6.56;56.93
15678;BME280;7939;50.814;6.368;2022-12-04T13:06:12;99810.06;;;6.63;57.80
15678;BME280;7939;50.814;6.368;2022-12-04T13:08:45;99807.47;;;6.60;57.11
15678;BME280;7939;50.814;6.368;2022-12-04T13:11:19;99806.44;;;6.49;57.68
15678;BME280;7939;50.814;6.368;2022-12-04T13:13:50;99813.38;;;6.59;56.60
15678;BME280;7939;50.814;6.368;2022-12-04T13:16:20;99818.59;;;6.67;56.54
15678;BME280;7939;50.814;6.368;2022-12-04T13:18:50;99809.25;;;6.66;57.54
15678;BME280;7939;50.814;6.368;2022-12-04T13:21:28;99804.31;;;6.73;57.04
15678;BME280;7939;50.814;6.368;2022-12-04T13:26:58;99799.19;;;6.72;57.43
15678;BME280;7939;50.814;6.368;2022-12-04T13:29:40;99794.06;;;6.67;57.36
15678;BME280;7939;50.814;6.368;2022-12-04T13:32:27;99785.78;;;6.81;57.19
15678;BME280;7939;50.814;6.368;2022-12-04T13:35:03;99786.53;;;6.75;57.66
15678;BME280;7939;50.814;6.368;2022-12-04T13:37:57;99783.34;;;6.87;57.54
15678;BME280;7939;50.814;6.368;2022-12-04T13:40:31;99778.28;;;6.90;57.67
15678;BME280;7939;50.814;6.368;2022-12-04T13:43:20;99779.78;;;6.74;57.28
15678;BME280;7939;50.814;6.368;2022-12-04T13:45:53;99779.78;;;6.75;57.88